Warzao II — FGE7001 — position and weather

sailwx.info

Track history (hours):
 
Tides and Currents Weather Stations Pressure Air Temp Water Temp Dewpoint Dewpoint Depression Visibility Wind Speed Wind Dir Waves Ship Positions

Warzao II

Last reported at 2018-Jun-25 13:58 UTC. Time now 2018-Jun-25 17:51 UTC.
Position N 47°23' W 002°33'.

Length 11 m.

Type: Sailing vessel. MMSI: 227667820.

Date/timePositionNaut miles runAvg speedWind from/ knotsBaromVisibWave heightAir tempDewpointWater temp
2018-Jun-25 13:58N 47°23' W 002°33'1 1.5
2018-Jun-25 13:30N 47°24' W 002°33'3 5.1
2018-Jun-25 13:01N 47°24' W 002°37'2 4.0
2018-Jun-25 12:30N 47°24' W 002°40'2 4.6
2018-Jun-25 12:00N 47°24' W 002°43'2 4.2
2018-Jun-25 11:29N 47°24' W 002°46'2 5.1
2018-Jun-25 11:00N 47°25' W 002°49'3 5.0
2018-Jun-25 10:30N 47°27' W 002°52'2 3.8
2018-Jun-25 10:00N 47°26' W 002°54'2 4.0
2018-Jun-25 09:30N 47°25' W 002°56'2 3.7
2018-Jun-25 09:00N 47°23' W 002°56'1 0.0
2018-Jun-23 13:42N 47°23' W 002°58'1 3.6
2018-Jun-23 13:30N 47°22' W 002°57'2 4.2
2018-Jun-23 12:59N 47°23' W 002°55'2 4.1
2018-Jun-23 12:30N 47°23' W 002°52'2 4.4
2018-Jun-23 12:00N 47°24' W 002°48'2 4.3
2018-Jun-23 11:30N 47°24' W 002°45'2 4.5
2018-Jun-23 10:59N 47°24' W 002°42'2 3.8
2018-Jun-23 10:30N 47°24' W 002°39'2 4.0
2018-Jun-23 10:00N 47°24' W 002°36'2 3.6
2018-Jun-23 09:30N 47°24' W 002°33'  
Track history (hours):
 
Tides and Currents Weather Stations Pressure Air Temp Water Temp Dewpoint Dewpoint Depression Visibility Wind Speed Wind Dir Waves Ship Positions

Warzao II

Last reported at 2018-Jun-25 13:58 UTC. Time now 2018-Jun-25 17:51 UTC.
Position N 47°23' W 002°33'.

Length 11 m.

Type: Sailing vessel. MMSI: 227667820.

Date/timePositionNaut miles runAvg speedWind from/ knotsBaromVisibWave heightAir tempDewpointWater temp
2018-Jun-25 13:58N 47°23' W 002°33'1 1.5
2018-Jun-25 13:30N 47°24' W 002°33'3 5.1
2018-Jun-25 13:01N 47°24' W 002°37'2 4.0
2018-Jun-25 12:30N 47°24' W 002°40'2 4.6
2018-Jun-25 12:00N 47°24' W 002°43'2 4.2
2018-Jun-25 11:29N 47°24' W 002°46'2 5.1
2018-Jun-25 11:00N 47°25' W 002°49'3 5.0
2018-Jun-25 10:30N 47°27' W 002°52'2 3.8
2018-Jun-25 10:00N 47°26' W 002°54'2 4.0
2018-Jun-25 09:30N 47°25' W 002°56'2 3.7
2018-Jun-25 09:00N 47°23' W 002°56'1 0.0
2018-Jun-23 13:42N 47°23' W 002°58'1 3.6
2018-Jun-23 13:30N 47°22' W 002°57'2 4.2
2018-Jun-23 12:59N 47°23' W 002°55'2 4.1
2018-Jun-23 12:30N 47°23' W 002°52'2 4.4
2018-Jun-23 12:00N 47°24' W 002°48'2 4.3
2018-Jun-23 11:30N 47°24' W 002°45'2 4.5
2018-Jun-23 10:59N 47°24' W 002°42'2 3.8
2018-Jun-23 10:30N 47°24' W 002°39'2 4.0
2018-Jun-23 10:00N 47°24' W 002°36'2 3.6
2018-Jun-23 09:30N 47°24' W 002°33'  

Dump ship's entire track history